Time;durP1;ratioP1;P1;durP2;ratioP2;P2;SDS_P1;SDS_P2;PMS_P1;PMS_P2;Temp;Humidity;BMP_temperature;BMP_pressure;BME280_temperature;BME280_humidity;BME280_pressure;Samples;Min_cycle;Max_cycle;Signal;HPM_P1;HPM_P2
2023/04/17 00:01:26;;;;;;;36.63;21.98;;;8.00;99.90;;;;;;5092250;28;20048;-61
2023/04/17 00:03:53;;;;;;;33.10;21.92;;;8.00;99.90;;;;;;5073649;28;20056;-62
2023/04/17 00:06:20;;;;;;;32.10;21.70;;;8.00;99.90;;;;;;5091827;28;20044;-61
2023/04/17 00:08:48;;;;;;;31.10;21.25;;;8.00;99.90;;;;;;5091946;28;20040;-62
2023/04/17 00:11:15;;;;;;;36.05;20.95;;;8.00;99.90;;;;;;5074187;28;20453;-61
2023/04/17 00:13:43;;;;;;;34.53;21.08;;;8.00;99.90;;;;;;5091552;28;20048;-60
2023/04/17 00:16:11;;;;;;;30.42;20.85;;;8.00;99.90;;;;;;5071983;28;20499;-62
2023/04/17 00:18:38;;;;;;;34.92;20.73;;;8.00;99.90;;;;;;5073829;28;20048;-62
2023/04/17 00:21:06;;;;;;;33.15;20.08;;;8.00;99.90;;;;;;5091672;28;20404;-62
2023/04/17 00:23:33;;;;;;;28.15;18.65;;;8.00;99.90;;;;;;5092261;28;20052;-61
2023/04/17 00:26:01;;;;;;;32.92;20.38;;;8.00;99.90;;;;;;5091921;28;20040;-61
2023/04/17 00:28:28;;;;;;;32.30;18.55;;;8.00;99.90;;;;;;5073294;28;20048;-61
2023/04/17 00:30:57;;;;;;;29.35;18.90;;;8.00;99.90;;;;;;5074103;28;20112;-61
2023/04/17 00:33:23;;;;;;;32.15;19.63;;;8.00;99.90;;;;;;5091369;28;20060;-62
2023/04/17 00:35:50;;;;;;;30.15;19.13;;;7.90;99.90;;;;;;5073658;28;20561;-62
2023/04/17 00:38:17;;;;;;;28.05;18.48;;;7.90;99.90;;;;;;5091749;28;20044;-62
2023/04/17 00:40:45;;;;;;;30.35;18.08;;;7.90;99.90;;;;;;5093830;28;20407;-62
2023/04/17 00:43:13;;;;;;;31.17;18.85;;;7.90;99.90;;;;;;5095240;28;20482;-62
2023/04/17 00:45:41;;;;;;;33.67;19.20;;;8.00;99.90;;;;;;5095648;28;20128;-61
2023/04/17 00:48:09;;;;;;;29.38;18.33;;;8.00;99.90;;;;;;5094911;28;20093;-62
2023/04/17 00:50:36;;;;;;;31.95;18.67;;;7.90;99.90;;;;;;5095792;28;20060;-62
2023/04/17 00:53:03;;;;;;;30.58;17.67;;;7.90;99.90;;;;;;5095744;28;20040;-63
2023/04/17 00:55:32;;;;;;;34.67;19.52;;;7.90;99.90;;;;;;5077047;28;20102;-62
2023/04/17 00:57:59;;;;;;;32.53;19.65;;;7.90;99.90;;;;;;5095164;28;20048;-61
2023/04/17 01:00:27;;;;;;;29.38;19.15;;;7.90;99.90;;;;;;5077470;28;20083;-61
2023/04/17 01:02:56;;;;;;;34.75;21.40;;;7.90;99.90;;;;;;5081602;28;20052;-62
2023/04/17 01:05:24;;;;;;;29.95;19.05;;;7.90;99.90;;;;;;5077085;28;20040;-61
2023/04/17 01:07:51;;;;;;;32.28;19.75;;;7.80;99.90;;;;;;5095052;28;20181;-61
2023/04/17 01:10:18;;;;;;;30.58;20.13;;;7.80;99.90;;;;;;5094733;28;20044;-62
2023/04/17 01:12:47;;;;;;;30.88;19.95;;;7.80;99.90;;;;;;5095067;28;20056;-61
2023/04/17 01:15:15;;;;;;;31.30;20.17;;;7.80;99.90;;;;;;5095154;28;20047;-62
2023/04/17 01:17:43;;;;;;;32.72;20.58;;;7.80;99.90;;;;;;5094467;28;20050;-61
2023/04/17 01:20:10;;;;;;;34.70;21.70;;;7.80;99.90;;;;;;5077119;28;20048;-62
2023/04/17 01:22:38;;;;;;;32.20;20.67;;;7.70;99.90;;;;;;5094523;28;20094;-62
2023/04/17 01:25:07;;;;;;;33.50;19.55;;;7.70;99.90;;;;;;5094709;28;20487;-61
2023/04/17 01:27:35;;;;;;;35.42;22.00;;;7.70;99.90;;;;;;5094917;28;20132;-61
2023/04/17 01:30:02;;;;;;;35.42;21.45;;;7.80;99.90;;;;;;5092368;28;20072;-62
2023/04/17 01:32:28;;;;;;;35.28;21.60;;;7.70;99.90;;;;;;5076640;28;20059;-62
2023/04/17 01:34:55;;;;;;;36.90;21.98;;;7.70;99.90;;;;;;5094745;28;20097;-61
2023/04/17 01:37:22;;;;;;;34.50;21.27;;;7.70;99.90;;;;;;5094057;28;20052;-62
2023/04/17 01:39:49;;;;;;;40.85;22.80;;;7.70;99.90;;;;;;5092317;28;20376;-61
2023/04/17 01:42:17;;;;;;;48.92;23.67;;;7.70;99.90;;;;;;5094903;28;20048;-62
2023/04/17 01:44:44;;;;;;;35.75;20.52;;;7.80;99.90;;;;;;5074073;28;20093;-61
2023/04/17 01:47:11;;;;;;;36.67;21.77;;;7.80;99.90;;;;;;5094411;28;21205;-61
2023/04/17 01:49:38;;;;;;;35.53;21.10;;;7.80;99.90;;;;;;5094361;28;20101;-63
2023/04/17 01:52:05;;;;;;;34.63;20.42;;;7.80;99.90;;;;;;5093487;28;20454;-62
2023/04/17 01:54:32;;;;;;;38.38;20.25;;;7.80;99.90;;;;;;5076318;28;20043;-61
2023/04/17 01:57:00;;;;;;;37.70;21.95;;;7.80;99.90;;;;;;5076005;28;20101;-62
2023/04/17 01:59:28;;;;;;;34.90;20.20;;;7.80;99.90;;;;;;5093517;28;20127;-62
2023/04/17 02:01:56;;;;;;;34.33;20.40;;;7.80;99.90;;;;;;5091868;28;20098;-61
2023/04/17 02:04:22;;;;;;;34.28;20.95;;;7.80;99.90;;;;;;5094057;28;20048;-61
2023/04/17 02:06:50;;;;;;;33.17;20.58;;;7.80;99.90;;;;;;5073473;28;20047;-62
2023/04/17 02:09:17;;;;;;;38.25;21.17;;;7.80;99.90;;;;;;5093933;28;20372;-61
2023/04/17 02:11:44;;;;;;;31.67;19.23;;;7.80;99.90;;;;;;5093699;28;20048;-60
2023/04/17 02:14:11;;;;;;;36.05;21.25;;;7.80;99.90;;;;;;5076025;28;20048;-62
2023/04/17 02:16:44;;;;;;;36.53;20.88;;;7.80;99.90;;;;;;5093973;28;20056;-61
2023/04/17 02:19:11;;;;;;;33.22;18.95;;;7.80;99.90;;;;;;5072990;28;20080;-61
2023/04/17 02:21:38;;;;;;;32.20;19.65;;;7.80;99.90;;;;;;5075627;28;20059;-62
2023/04/17 02:24:05;;;;;;;34.10;19.90;;;7.80;99.90;;;;;;5075921;28;20052;-61
2023/04/17 02:26:32;;;;;;;31.90;19.17;;;7.80;99.90;;;;;;5093166;28;20036;-61
2023/04/17 02:28:59;;;;;;;35.17;19.35;;;7.70;99.90;;;;;;5075785;28;20450;-62
2023/04/17 02:31:26;;;;;;;31.52;18.77;;;7.70;99.90;;;;;;5093526;28;20390;-61
2023/04/17 02:33:54;;;;;;;34.90;20.08;;;7.70;99.90;;;;;;5075244;28;20048;-62
2023/04/17 02:36:21;;;;;;;35.75;18.67;;;7.80;99.90;;;;;;5093472;28;20043;-61
2023/04/17 02:38:48;;;;;;;33.25;19.45;;;7.80;99.90;;;;;;5075289;28;20500;-61
2023/04/17 02:41:15;;;;;;;29.15;17.50;;;7.70;99.90;;;;;;5092723;28;20105;-62
2023/04/17 02:43:42;;;;;;;29.40;17.27;;;7.70;99.90;;;;;;5093390;28;20484;-62
2023/04/17 02:46:09;;;;;;;26.67;17.42;;;7.70;99.90;;;;;;5093090;28;20388;-61
2023/04/17 02:48:35;;;;;;;27.95;17.27;;;7.70;99.90;;;;;;5092488;28;20469;-62
2023/04/17 02:51:04;;;;;;;28.60;16.95;;;7.70;99.90;;;;;;5074849;28;20056;-62
2023/04/17 02:53:31;;;;;;;25.65;17.63;;;7.70;99.90;;;;;;5075268;28;20391;-62
2023/04/17 02:55:58;;;;;;;25.27;15.57;;;7.70;99.90;;;;;;5092441;28;20044;-62
2023/04/17 02:58:25;;;;;;;26.27;16.02;;;7.60;99.90;;;;;;5092936;28;20048;-61
2023/04/17 03:00:52;;;;;;;25.95;16.92;;;7.60;99.90;;;;;;5090298;28;20514;-60
2023/04/17 03:03:19;;;;;;;28.45;18.27;;;7.70;99.90;;;;;;5074124;28;20125;-61
2023/04/17 03:05:45;;;;;;;31.23;17.20;;;7.70;99.90;;;;;;5090735;28;20047;-62
2023/04/17 03:08:14;;;;;;;29.58;18.55;;;7.60;99.90;;;;;;5092347;28;20051;-62
2023/04/17 03:10:41;;;;;;;31.45;18.15;;;7.70;99.90;;;;;;5074792;28;20090;-61
2023/04/17 03:13:08;;;;;;;37.90;20.25;;;7.70;99.90;;;;;;5092856;28;20442;-62
2023/04/17 03:15:35;;;;;;;30.65;18.33;;;7.60;99.90;;;;;;5092052;28;20044;-61
2023/04/17 03:18:02;;;;;;;30.08;18.05;;;7.70;99.90;;;;;;5092615;28;20073;-61
2023/04/17 03:20:29;;;;;;;29.38;17.77;;;7.70;99.90;;;;;;5092357;28;20056;-62
2023/04/17 03:22:56;;;;;;;27.50;17.58;;;7.60;99.90;;;;;;5071913;28;20551;-62
2023/04/17 03:25:24;;;;;;;36.78;18.65;;;7.60;99.90;;;;;;5092445;28;20044;-61
2023/04/17 03:27:51;;;;;;;30.88;18.67;;;7.70;99.90;;;;;;5072279;28;20491;-64
2023/04/17 03:30:18;;;;;;;34.47;20.35;;;7.60;99.90;;;;;;5091688;28;20104;-62
2023/04/17 03:32:45;;;;;;;44.65;22.23;;;7.60;99.90;;;;;;5092559;28;20040;-61
2023/04/17 03:35:11;;;;;;;41.45;20.92;;;7.50;99.90;;;;;;5074442;28;20055;-61
2023/04/17 03:37:38;;;;;;;41.05;20.95;;;7.50;99.90;;;;;;5091784;28;20055;-62
2023/04/17 03:40:07;;;;;;;39.78;22.00;;;7.50;99.90;;;;;;5092186;28;20101;-62
2023/04/17 03:42:35;;;;;;;35.15;20.60;;;7.50;99.90;;;;;;5092317;28;20048;-60
2023/04/17 03:45:03;;;;;;;37.83;19.42;;;7.50;99.90;;;;;;5091417;28;20565;-61
2023/04/17 03:47:30;;;;;;;40.03;19.90;;;7.50;99.90;;;;;;5092118;28;20044;-61
2023/04/17 03:49:57;;;;;;;40.60;19.13;;;7.50;99.90;;;;;;5074058;28;20097;-62
2023/04/17 03:52:24;;;;;;;38.55;20.73;;;7.50;99.90;;;;;;5073794;28;20121;-62
2023/04/17 03:54:51;;;;;;;58.80;18.63;;;7.50;99.90;;;;;;5092131;28;20044;-62
2023/04/17 03:57:18;;;;;;;36.05;18.05;;;7.50;99.90;;;;;;5091415;28;20067;-62
2023/04/17 03:59:46;;;;;;;30.88;17.42;;;7.50;99.90;;;;;;5090240;28;20453;-61
2023/04/17 04:02:13;;;;;;;34.35;19.02;;;7.40;99.90;;;;;;5092019;28;20052;-62
2023/04/17 04:04:40;;;;;;;44.45;18.58;;;7.40;99.90;;;;;;5071655;28;20048;-62
2023/04/17 04:07:06;;;;;;;74.32;21.08;;;7.40;99.90;;;;;;5073719;28;20048;-61
2023/04/17 04:09:33;;;;;;;31.27;17.23;;;7.40;99.90;;;;;;5074129;28;20101;-60
2023/04/17 04:12:00;;;;;;;33.00;18.20;;;7.40;99.90;;;;;;5073178;28;20058;-62
2023/04/17 04:14:27;;;;;;;40.55;17.50;;;7.40;99.90;;;;;;5074837;28;20172;-63
2023/04/17 04:16:56;;;;;;;32.42;20.30;;;7.40;99.90;;;;;;5096164;28;20040;-62
2023/04/17 04:19:22;;;;;;;32.28;18.85;;;7.40;99.90;;;;;;5095475;28;20040;-62
2023/04/17 04:21:49;;;;;;;41.22;20.38;;;7.50;99.90;;;;;;5077872;28;20093;-62
2023/04/17 04:24:19;;;;;;;47.33;23.02;;;7.50;99.90;;;;;;5077955;28;20069;-62
2023/04/17 04:26:48;;;;;;;44.05;20.95;;;7.50;99.90;;;;;;5095198;28;20051;-62
2023/04/17 04:29:16;;;;;;;41.17;22.15;;;7.50;99.90;;;;;;5085365;28;20048;-62
2023/04/17 04:31:45;;;;;;;37.60;22.23;;;7.50;99.90;;;;;;5072537;28;20181;-61
2023/04/17 04:34:15;;;;;;;36.22;21.80;;;7.50;99.90;;;;;;5090478;28;20048;-60
2023/04/17 04:36:48;;;;;;;35.15;21.30;;;7.50;99.90;;;;;;5075341;28;20044;-62
2023/04/17 04:39:19;;;;;;;39.95;22.48;;;7.50;99.90;;;;;;5091330;28;20136;-63
2023/04/17 04:41:46;;;;;;;32.60;20.50;;;7.50;99.90;;;;;;5091462;28;20510;-62
2023/04/17 04:44:13;;;;;;;48.03;22.75;;;7.50;99.90;;;;;;5094408;28;20051;-62
2023/04/17 04:46:39;;;;;;;35.60;20.73;;;7.60;99.90;;;;;;5090017;28;20384;-62
2023/04/17 04:49:06;;;;;;;41.92;22.50;;;7.50;99.90;;;;;;5093457;28;20040;-62
2023/04/17 04:51:35;;;;;;;33.20;20.45;;;7.60;99.90;;;;;;5075012;28;20048;-62
2023/04/17 04:54:02;;;;;;;34.03;19.45;;;7.60;99.90;;;;;;5076140;28;20541;-62
2023/04/17 04:56:29;;;;;;;32.63;20.60;;;7.60;99.90;;;;;;5070146;28;20053;-62
2023/04/17 04:58:56;;;;;;;39.33;21.88;;;7.70;99.90;;;;;;5075390;28;20136;-62
2023/04/17 05:01:23;;;;;;;31.42;20.42;;;7.70;99.90;;;;;;5092843;28;20142;-62
2023/04/17 05:03:50;;;;;;;36.60;21.10;;;7.70;99.90;;;;;;5094576;28;20109;-62
2023/04/17 05:06:17;;;;;;;35.13;21.55;;;7.70;99.90;;;;;;5089402;28;20043;-61
2023/04/17 05:08:45;;;;;;;41.17;22.85;;;7.70;99.90;;;;;;5093541;28;20040;-62
2023/04/17 05:11:12;;;;;;;37.53;21.92;;;7.70;99.90;;;;;;5072341;28;20094;-62
2023/04/17 05:13:39;;;;;;;36.45;22.33;;;7.70;99.90;;;;;;5092526;28;20098;-62
2023/04/17 05:16:06;;;;;;;41.95;23.05;;;7.70;99.90;;;;;;5074768;28;20079;-62
2023/04/17 05:18:33;;;;;;;36.55;22.10;;;7.70;99.90;;;;;;5076399;28;20108;-62
2023/04/17 05:21:00;;;;;;;39.53;22.48;;;7.70;99.90;;;;;;5093323;28;20044;-61
2023/04/17 05:23:27;;;;;;;36.15;22.55;;;7.70;99.90;;;;;;5093613;28;20047;-63
2023/04/17 05:25:55;;;;;;;33.95;20.23;;;7.80;99.90;;;;;;5091220;28;20043;-62
2023/04/17 05:28:22;;;;;;;35.70;20.67;;;7.80;99.90;;;;;;5091970;28;20407;-62
2023/04/17 05:30:49;;;;;;;29.67;18.58;;;7.80;99.90;;;;;;5091430;28;20057;-63
2023/04/17 05:33:16;;;;;;;31.23;19.10;;;7.80;99.90;;;;;;5074123;28;20060;-63
2023/04/17 05:35:42;;;;;;;31.40;19.67;;;7.80;99.90;;;;;;5092591;28;20085;-61
2023/04/17 05:38:09;;;;;;;31.38;18.90;;;7.90;99.90;;;;;;5073733;28;20056;-62
2023/04/17 05:40:36;;;;;;;35.72;19.48;;;7.90;99.90;;;;;;5091033;28;20057;-61
2023/04/17 05:43:09;;;;;;;30.00;18.63;;;7.90;99.90;;;;;;5092112;28;20052;-61
2023/04/17 05:45:36;;;;;;;34.22;19.42;;;7.90;99.90;;;;;;5091458;28;20048;-62
2023/04/17 05:48:03;;;;;;;30.67;19.52;;;7.90;99.90;;;;;;5073172;28;20048;-62
2023/04/17 05:50:30;;;;;;;32.88;20.17;;;8.00;99.90;;;;;;5093508;28;20182;-61
2023/04/17 05:52:57;;;;;;;30.17;19.10;;;8.20;99.90;;;;;;5072750;28;20044;-61
2023/04/17 05:55:24;;;;;;;32.25;18.33;;;8.10;99.90;;;;;;5093599;28;20052;-62
2023/04/17 05:57:51;;;;;;;33.08;18.95;;;8.10;99.90;;;;;;5091269;28;20448;-62
2023/04/17 06:00:21;;;;;;;28.08;17.58;;;8.20;99.90;;;;;;5075772;28;20496;-62
2023/04/17 06:02:48;;;;;;;36.70;19.97;;;8.20;99.90;;;;;;5063937;28;20393;-62
2023/04/17 06:05:15;;;;;;;29.65;18.95;;;8.30;99.90;;;;;;5067533;28;20443;-63
2023/04/17 06:07:42;;;;;;;30.95;19.27;;;8.30;99.90;;;;;;5070288;28;20052;-61
2023/04/17 06:10:09;;;;;;;30.00;18.15;;;8.40;99.90;;;;;;5071341;28;20048;-61
2023/04/17 06:12:37;;;;;;;29.67;18.80;;;8.40;99.90;;;;;;5071356;28;20044;-61
2023/04/17 06:15:04;;;;;;;28.92;17.95;;;8.50;99.90;;;;;;5071135;28;20117;-61
2023/04/17 06:17:33;;;;;;;27.25;17.83;;;8.60;99.90;;;;;;5052256;28;20045;-62
2023/04/17 06:19:59;;;;;;;30.83;18.17;;;8.60;99.90;;;;;;5052665;28;20061;-62
2023/04/17 06:22:26;;;;;;;30.88;17.58;;;8.70;99.90;;;;;;5070352;28;20041;-62
2023/04/17 06:24:53;;;;;;;27.55;16.48;;;8.80;99.90;;;;;;5070736;28;20066;-61
2023/04/17 06:27:20;;;;;;;31.20;17.20;;;8.80;99.90;;;;;;5069863;28;20055;-61
2023/04/17 06:29:47;;;;;;;27.55;17.83;;;8.90;99.90;;;;;;5071069;28;20040;-61
2023/04/17 06:32:14;;;;;;;28.52;18.05;;;8.90;99.90;;;;;;5054012;28;20068;-62
2023/04/17 06:34:42;;;;;;;24.58;16.67;;;8.90;99.90;;;;;;5070238;28;20045;-62
2023/04/17 06:37:09;;;;;;;23.15;16.30;;;9.00;99.90;;;;;;5065980;28;20097;-62
2023/04/17 06:39:36;;;;;;;25.83;16.17;;;9.10;99.90;;;;;;5068912;28;20136;-61
2023/04/17 06:42:03;;;;;;;26.00;16.55;;;9.10;99.90;;;;;;5051031;28;20056;-63
2023/04/17 06:44:30;;;;;;;22.67;15.18;;;9.20;99.90;;;;;;5067701;28;20044;-62
2023/04/17 06:46:57;;;;;;;22.73;15.20;;;9.30;99.90;;;;;;5050865;28;20047;-62
2023/04/17 06:49:24;;;;;;;24.20;15.93;;;9.40;99.90;;;;;;5067293;28;20443;-61
2023/04/17 06:51:52;;;;;;;20.35;14.82;;;9.60;99.90;;;;;;5053947;28;20235;-63
2023/04/17 06:54:19;;;;;;;20.20;14.77;;;9.70;99.90;;;;;;5050065;28;20052;-62
2023/04/17 06:56:46;;;;;;;22.05;15.85;;;9.70;99.90;;;;;;5071230;28;20507;-62
2023/04/17 06:59:13;;;;;;;20.63;15.43;;;9.90;99.90;;;;;;5066204;28;20044;-62
2023/04/17 07:01:41;;;;;;;19.90;14.88;;;9.90;99.90;;;;;;5069761;28;20090;-61
2023/04/17 07:04:08;;;;;;;21.77;15.00;;;10.10;99.90;;;;;;5071502;28;20048;-61
2023/04/17 07:06:37;;;;;;;23.08;15.45;;;10.20;99.90;;;;;;5069543;28;20048;-63
2023/04/17 07:09:05;;;;;;;23.30;16.52;;;10.40;99.90;;;;;;5089475;28;20055;-61
2023/04/17 07:11:32;;;;;;;27.67;16.20;;;10.50;99.90;;;;;;5090287;28;20043;-62
2023/04/17 07:13:59;;;;;;;23.67;16.15;;;10.80;99.90;;;;;;5072633;28;20063;-62
2023/04/17 07:16:25;;;;;;;21.17;15.60;;;10.90;99.90;;;;;;5068840;28;20048;-62
2023/04/17 07:18:52;;;;;;;24.50;17.33;;;10.90;99.90;;;;;;5090101;28;20041;-61
2023/04/17 07:21:19;;;;;;;23.75;16.27;;;11.00;99.90;;;;;;5089239;28;20040;-63
2023/04/17 07:23:46;;;;;;;25.85;16.63;;;10.90;99.90;;;;;;5091632;28;20051;-61
2023/04/17 07:26:15;;;;;;;20.90;14.63;;;10.90;99.90;;;;;;5089765;28;20046;-62
2023/04/17 07:28:42;;;;;;;22.25;16.13;;;10.90;99.90;;;;;;5072035;28;20083;-62
2023/04/17 07:31:08;;;;;;;22.20;16.25;;;11.00;99.90;;;;;;5070291;28;20044;-62
2023/04/17 07:33:36;;;;;;;22.30;16.45;;;11.10;99.90;;;;;;5090909;28;20101;-62
2023/04/17 07:36:04;;;;;;;22.67;16.10;;;11.30;99.90;;;;;;5070804;28;20491;-61
2023/04/17 07:38:31;;;;;;;19.00;15.25;;;11.40;99.90;;;;;;5089172;28;20102;-62
2023/04/17 07:40:58;;;;;;;23.88;14.73;;;11.60;99.90;;;;;;5067619;28;20048;-62
2023/04/17 07:43:27;;;;;;;18.10;14.45;;;11.80;99.90;;;;;;5070579;28;20097;-61
2023/04/17 07:45:54;;;;;;;18.30;12.90;;;11.70;99.90;;;;;;5085185;28;20044;-61
2023/04/17 07:48:22;;;;;;;17.27;13.48;;;11.80;99.90;;;;;;5087932;28;20048;-62
2023/04/17 07:50:49;;;;;;;18.45;13.85;;;11.70;99.90;;;;;;5068438;28;20528;-63
2023/04/17 07:53:16;;;;;;;19.58;14.13;;;12.00;99.90;;;;;;5090230;28;20151;-62
2023/04/17 07:55:43;;;;;;;16.92;12.65;;;12.10;99.90;;;;;;5071076;28;20044;-62
2023/04/17 07:58:10;;;;;;;21.38;14.02;;;12.30;99.90;;;;;;5070448;28;20113;-62
2023/04/17 08:00:38;;;;;;;19.45;13.88;;;12.30;99.90;;;;;;5070523;28;20059;-61
2023/04/17 08:03:06;;;;;;;17.50;13.25;;;12.30;99.90;;;;;;5070795;28;20113;-62
2023/04/17 08:05:33;;;;;;;16.95;13.73;;;12.50;99.90;;;;;;5071679;28;20083;-62
2023/04/17 08:08:00;;;;;;;19.35;14.68;;;12.60;99.90;;;;;;5088671;28;20048;-62
2023/04/17 08:10:27;;;;;;;18.20;15.15;;;12.60;99.90;;;;;;5091351;28;20124;-62
2023/04/17 08:12:54;;;;;;;18.30;14.18;;;12.60;99.90;;;;;;5067093;28;20485;-62
2023/04/17 08:15:21;;;;;;;15.85;13.40;;;12.70;99.90;;;;;;5072941;28;20052;-61
2023/04/17 08:17:50;;;;;;;16.30;12.00;;;13.00;99.90;;;;;;5087533;28;20049;-62
2023/04/17 08:20:17;;;;;;;16.65;12.18;;;13.80;99.90;;;;;;5073187;28;20119;-62
2023/04/17 08:22:45;;;;;;;18.13;12.07;;;14.50;99.90;;;;;;5089454;28;20040;-62
2023/04/17 08:25:13;;;;;;;19.77;12.73;;;15.10;99.90;;;;;;5072540;28;20129;-61
2023/04/17 08:27:41;;;;;;;15.00;12.50;;;15.70;99.90;;;;;;5088231;28;20101;-62
2023/04/17 08:30:10;;;;;;;18.55;13.35;;;15.90;99.90;;;;;;5089930;28;20112;-62
2023/04/17 08:32:39;;;;;;;21.73;13.52;;;16.10;99.90;;;;;;5068085;28;20123;-62
2023/04/17 08:35:08;;;;;;;14.65;11.75;;;16.10;99.90;;;;;;5070441;28;20076;-62
2023/04/17 08:37:35;;;;;;;15.87;11.53;;;16.10;99.90;;;;;;5088301;28;20048;-62
2023/04/17 08:40:03;;;;;;;14.77;11.50;;;16.10;99.90;;;;;;5087700;28;20048;-62
2023/04/17 08:42:31;;;;;;;14.20;11.02;;;16.20;99.90;;;;;;5089037;28;20093;-61
2023/04/17 08:44:59;;;;;;;16.15;10.60;;;16.10;99.90;;;;;;5088993;28;20066;-62
2023/04/17 08:47:27;;;;;;;15.60;11.32;;;16.80;99.90;;;;;;5090230;28;20078;-61
2023/04/17 08:49:54;;;;;;;13.32;10.95;;;17.40;99.90;;;;;;5067944;28;20047;-61
2023/04/17 08:52:23;;;;;;;13.57;10.45;;;18.20;99.90;;;;;;5069465;28;20052;-63
2023/04/17 08:54:50;;;;;;;12.65;10.48;;;18.50;99.90;;;;;;5086782;28;20376;-61
2023/04/17 08:57:16;;;;;;;11.85;10.25;;;18.50;99.90;;;;;;5087521;28;20063;-61
2023/04/17 08:59:44;;;;;;;11.88;9.75;;;17.90;99.90;;;;;;5071100;28;20044;-63
2023/04/17 09:02:12;;;;;;;11.95;9.60;;;18.40;99.90;;;;;;5075352;28;20109;-62
2023/04/17 09:04:40;;;;;;;10.98;9.35;;;18.50;99.90;;;;;;5088560;28;20101;-62
2023/04/17 09:07:08;;;;;;;13.95;10.13;;;18.40;99.90;;;;;;5073002;28;20479;-62
2023/04/17 09:09:50;;;;;;;11.45;9.77;;;18.40;99.90;;;;;;5093100;28;20096;-62
2023/04/17 09:12:17;;;;;;;13.82;10.63;;;18.20;99.90;;;;;;5091893;28;20132;-63
2023/04/17 09:14:44;;;;;;;13.43;10.20;;;18.20;99.90;;;;;;5091518;28;20461;-62
2023/04/17 09:17:12;;;;;;;12.23;10.43;;;18.20;99.90;;;;;;5074831;28;20055;-61
2023/04/17 09:19:59;;;;;;;12.32;10.73;;;18.10;99.90;;;;;;5092887;28;20343;-62
2023/04/17 09:22:26;;;;;;;12.35;10.00;;;17.80;99.90;;;;;;5072706;28;20051;-62
2023/04/17 09:24:56;;;;;;;13.65;10.05;;;17.70;99.90;;;;;;5091670;28;20089;-62
2023/04/17 09:27:25;;;;;;;14.15;10.65;;;17.50;99.90;;;;;;5071633;28;20037;-61
2023/04/17 09:29:59;;;;;;;14.07;10.52;;;17.30;99.90;;;;;;5092890;28;20056;-61
2023/04/17 09:32:27;;;;;;;11.95;10.02;;;17.40;99.90;;;;;;5071803;28;20051;-62
2023/04/17 09:34:56;;;;;;;13.65;10.43;;;17.60;99.90;;;;;;5093244;28;20101;-62
2023/04/17 09:37:23;;;;;;;11.05;9.70;;;17.80;99.90;;;;;;5092244;28;20557;-62
2023/04/17 09:40:06;;;;;;;11.65;9.10;;;17.70;99.90;;;;;;5092359;28;20056;-62
2023/04/17 09:42:33;;;;;;;13.15;9.38;;;17.40;99.90;;;;;;5091587;28;20048;-62
2023/04/17 09:45:18;;;;;;;13.55;10.18;;;17.60;99.90;;;;;;5073463;28;20055;-62
2023/04/17 09:47:47;;;;;;;13.63;10.35;;;17.60;99.90;;;;;;5090341;28;20044;-62
2023/04/17 09:50:16;;;;;;;12.70;9.57;;;17.70;99.90;;;;;;5073580;28;20051;-62
2023/04/17 09:52:43;;;;;;;12.17;10.17;;;18.20;99.90;;;;;;5093826;28;20055;-62
2023/04/17 09:55:13;;;;;;;11.35;9.80;;;18.20;99.90;;;;;;5090118;28;20048;-62
2023/04/17 09:57:40;;;;;;;12.02;10.75;;;18.50;99.90;;;;;;5093162;28;20060;-63
2023/04/17 10:00:13;;;;;;;11.45;9.45;;;18.80;99.90;;;;;;5074854;28;20081;-63
2023/04/17 10:02:42;;;;;;;12.52;10.02;;;18.80;99.90;;;;;;5075647;28;20052;-62
2023/04/17 10:05:11;;;;;;;13.25;10.00;;;18.80;99.90;;;;;;5074080;28;20564;-62
2023/04/17 10:07:38;;;;;;;11.05;9.00;;;18.80;99.90;;;;;;5091697;28;20047;-62
2023/04/17 10:10:09;;;;;;;12.30;9.32;;;18.50;99.90;;;;;;5091065;28;20048;-62
2023/04/17 10:12:39;;;;;;;12.60;9.75;;;18.80;99.90;;;;;;5093786;28;20048;-63
2023/04/17 10:15:08;;;;;;;11.70;9.38;;;19.40;99.90;;;;;;5091174;28;20066;-62
2023/04/17 10:17:35;;;;;;;12.55;9.02;;;20.20;99.90;;;;;;5074292;28;20109;-62
2023/04/17 10:20:43;;;;;;;15.52;9.73;;;20.80;99.90;;;;;;5072160;28;20385;-62
2023/04/17 10:23:30;;;;;;;11.30;9.30;;;21.70;99.90;;;;;;5081457;28;20403;-63
2023/04/17 10:26:37;;;;;;;12.65;9.85;;;22.50;99.90;;;;;;5073815;28;20131;-63
2023/04/17 10:29:05;;;;;;;11.57;9.48;;;22.80;98.50;;;;;;5090794;28;20048;-62
2023/04/17 10:32:23;;;;;;;11.75;9.50;;;23.00;98.90;;;;;;5091786;28;20399;-63
2023/04/17 10:34:50;;;;;;;15.13;9.50;;;23.10;96.60;;;;;;5091956;28;20123;-63
2023/04/17 10:37:17;;;;;;;12.07;9.60;;;23.50;97.40;;;;;;5090177;28;20065;-63
2023/04/17 10:39:53;;;;;;;10.85;9.15;;;23.60;95.80;;;;;;5092097;28;20044;-63
2023/04/17 10:42:20;;;;;;;12.07;9.95;;;24.00;95.00;;;;;;5092349;28;20044;-63
2023/04/17 10:44:50;;;;;;;11.50;8.95;;;23.70;94.80;;;;;;5072746;28;20536;-62
2023/04/17 10:47:21;;;;;;;12.13;9.60;;;24.60;95.60;;;;;;5090415;28;20093;-62
2023/04/17 10:49:53;;;;;;;11.65;10.30;;;25.00;93.00;;;;;;5092407;28;20044;-62
2023/04/17 10:52:40;;;;;;;9.98;8.93;;;25.00;92.70;;;;;;5071541;28;20402;-62
2023/04/17 10:55:09;;;;;;;12.48;9.50;;;25.60;93.40;;;;;;5090541;28;20058;-63
2023/04/17 10:57:56;;;;;;;11.98;9.00;;;24.80;92.10;;;;;;5092226;28;20127;-63
2023/04/17 11:00:32;;;;;;;11.65;9.68;;;25.10;91.80;;;;;;5087967;28;20474;-63
2023/04/17 11:03:01;;;;;;;10.30;9.10;;;24.80;91.70;;;;;;5091163;28;20059;-62
2023/04/17 11:05:29;;;;;;;12.77;9.55;;;24.40;91.30;;;;;;5069448;28;20048;-65
2023/04/17 11:07:56;;;;;;;11.50;9.52;;;22.90;93.00;;;;;;5073038;28;20090;-62
2023/04/17 11:10:24;;;;;;;12.77;10.45;;;22.10;92.90;;;;;;5072439;28;20040;-63
2023/04/17 11:12:54;;;;;;;10.35;9.25;;;21.50;94.50;;;;;;5072162;28;20048;-63
2023/04/17 11:15:26;;;;;;;11.65;9.30;;;22.10;94.80;;;;;;5089734;28;20090;-63
2023/04/17 11:17:55;;;;;;;12.98;10.00;;;22.90;95.10;;;;;;5091967;28;20123;-61
2023/04/17 11:20:23;;;;;;;14.37;10.17;;;23.80;93.70;;;;;;5072251;28;20052;-62
2023/04/17 11:22:50;;;;;;;12.25;9.13;;;24.30;92.10;;;;;;5072346;28;20290;-63
2023/04/17 11:25:22;;;;;;;11.55;10.02;;;24.90;92.60;;;;;;5091495;28;20040;-63
2023/04/17 11:27:55;;;;;;;11.80;9.70;;;24.20;91.80;;;;;;5088250;28;20048;-63
2023/04/17 11:30:27;;;;;;;12.60;10.40;;;24.30;92.40;;;;;;5073866;28;20051;-63
2023/04/17 11:32:57;;;;;;;14.30;11.70;;;23.40;92.20;;;;;;5091042;28;20514;-63
2023/04/17 11:35:28;;;;;;;13.00;10.00;;;23.50;92.20;;;;;;5073626;28;20048;-63
2023/04/17 11:38:10;;;;;;;13.07;10.85;;;23.90;91.90;;;;;;5072356;28;20047;-63
2023/04/17 11:40:43;;;;;;;13.77;10.82;;;23.50;92.20;;;;;;5092797;28;20051;-62
2023/04/17 11:43:10;;;;;;;13.80;11.18;;;22.80;92.20;;;;;;5072742;28;20135;-63
2023/04/17 11:45:39;;;;;;;12.15;10.63;;;22.90;92.80;;;;;;5072347;28;20048;-63
2023/04/17 11:48:09;;;;;;;13.13;10.05;;;23.40;92.50;;;;;;5091957;28;20545;-63
2023/04/17 11:50:36;;;;;;;13.85;10.95;;;23.10;92.60;;;;;;5091832;28;20176;-63
2023/04/17 11:53:04;;;;;;;13.55;10.85;;;22.80;92.00;;;;;;5074002;28;20044;-64
2023/04/17 11:55:31;;;;;;;13.90;10.65;;;21.90;93.20;;;;;;5092406;28;20131;-62
2023/04/17 11:57:59;;;;;;;12.65;10.75;;;22.30;94.10;;;;;;5071250;28;20456;-62
2023/04/17 12:00:28;;;;;;;12.73;10.23;;;23.10;92.80;;;;;;5074380;28;20094;-62
2023/04/17 12:02:57;;;;;;;12.73;10.25;;;22.90;93.10;;;;;;5062685;28;20140;-63
2023/04/17 12:05:26;;;;;;;13.55;11.60;;;22.90;92.80;;;;;;5054187;28;20118;-63
2023/04/17 12:08:04;;;;;;;13.13;11.35;;;22.40;93.10;;;;;;5053946;28;20484;-63
2023/04/17 12:10:42;;;;;;;18.08;11.85;;;22.60;92.60;;;;;;5070613;28;20060;-62
2023/04/17 12:13:10;;;;;;;14.13;10.77;;;22.30;93.00;;;;;;5071720;28;20055;-62
2023/04/17 12:15:37;;;;;;;14.82;11.75;;;22.70;93.30;;;;;;5053730;28;20049;-63
2023/04/17 12:18:05;;;;;;;14.75;10.75;;;23.20;91.90;;;;;;5071180;28;20044;-63
2023/04/17 12:20:36;;;;;;;17.30;11.52;;;23.30;91.50;;;;;;5071693;28;20523;-62
2023/04/17 12:23:04;;;;;;;14.73;11.70;;;23.40;92.10;;;;;;5071781;28;20048;-62
2023/04/17 12:25:32;;;;;;;13.75;11.00;;;23.00;91.60;;;;;;5069037;28;20408;-62
2023/04/17 12:27:59;;;;;;;15.82;11.73;;;23.40;92.20;;;;;;5071362;28;20053;-62
2023/04/17 12:30:26;;;;;;;13.95;11.38;;;23.90;92.00;;;;;;5053830;28;20048;-62
2023/04/17 12:32:53;;;;;;;14.23;10.10;;;23.50;92.30;;;;;;5053017;28;20041;-62
2023/04/17 12:35:21;;;;;;;13.43;10.43;;;23.30;90.00;;;;;;5072050;28;20387;-63
2023/04/17 12:37:50;;;;;;;13.32;10.30;;;23.40;90.80;;;;;;5073171;28;20044;-63
2023/04/17 12:40:18;;;;;;;15.75;10.10;;;24.00;91.20;;;;;;5075441;28;20659;-63